Time;durP1;ratioP1;P1;durP2;ratioP2;P2;SDS_P1;SDS_P2;PMS_P1;PMS_P2;Temp;Humidity;BMP_temperature;BMP_pressure;BME280_temperature;BME280_humidity;BME280_pressure;Samples;Min_cycle;Max_cycle;Signal;HPM_P1;HPM_P2
2021/10/27 00:01:49;;;;;;;;;;;23.30;48.20;;;;;;1591447;74;744;-69
2021/10/27 00:03:51;;;;;;;;;;;23.30;48.20;;;;;;1597195;74;1123;-68
2021/10/27 00:05:53;;;;;;;;;;;23.30;48.20;;;;;;1597241;73;1936;-67
2021/10/27 00:07:55;;;;;;;;;;;23.30;48.20;;;;;;1597402;74;717;-67
2021/10/27 00:09:57;;;;;;;;;;;23.30;48.10;;;;;;1592686;74;702;-67
2021/10/27 00:11:59;;;;;;;;;;;23.30;48.20;;;;;;1593878;74;871;-67
2021/10/27 00:14:01;;;;;;;;;;;23.30;48.20;;;;;;1595770;73;1116;-69
2021/10/27 00:16:02;;;;;;;;;;;23.30;48.30;;;;;;1592907;74;794;-69
2021/10/27 00:18:05;;;;;;;;;;;23.30;48.20;;;;;;1596973;73;787;-69
2021/10/27 00:20:08;;;;;;;;;;;23.30;48.30;;;;;;1597450;74;782;-69
2021/10/27 00:22:10;;;;;;;;;;;23.30;48.30;;;;;;1593575;74;793;-70
2021/10/27 00:24:12;;;;;;;;;;;23.30;48.30;;;;;;1587297;74;1141;-69
2021/10/27 00:26:13;;;;;;;;;;;23.30;48.30;;;;;;1593614;73;1944;-68
2021/10/27 00:28:15;;;;;;;;;;;23.30;48.40;;;;;;1583817;74;797;-67
2021/10/27 00:30:18;;;;;;;;;;;23.30;48.40;;;;;;1589700;74;805;-69
2021/10/27 00:32:19;;;;;;;;;;;23.30;48.40;;;;;;1588034;74;747;-70
2021/10/27 00:34:21;;;;;;;;;;;23.30;48.40;;;;;;1592619;74;1127;-69
2021/10/27 00:36:23;;;;;;;;;;;23.40;48.40;;;;;;1587068;74;821;-70
2021/10/27 00:38:25;;;;;;;;;;;23.40;48.50;;;;;;1586230;74;692;-69
2021/10/27 00:40:27;;;;;;;;;;;23.30;48.50;;;;;;1594218;74;729;-70
2021/10/27 00:42:29;;;;;;;;;;;23.40;48.60;;;;;;1590638;74;749;-69
2021/10/27 00:44:31;;;;;;;;;;;23.30;48.60;;;;;;1582540;74;1148;-70
2021/10/27 00:46:33;;;;;;;;;;;23.30;48.50;;;;;;1574867;74;1922;-69
2021/10/27 00:48:38;;;;;;;;;;;23.30;48.60;;;;;;1578765;74;772;-70
2021/10/27 00:50:38;;;;;;;;;;;23.30;48.50;;;;;;1579752;73;1697;-70
2021/10/27 00:52:40;;;;;;;;;;;23.30;48.60;;;;;;1573939;73;750;-71
2021/10/27 00:54:43;;;;;;;;;;;23.30;48.60;;;;;;1575283;73;1128;-71
2021/10/27 00:56:45;;;;;;;;;;;23.30;48.50;;;;;;1572198;74;704;-71
2021/10/27 00:58:47;;;;;;;;;;;23.30;48.50;;;;;;1576992;74;747;-71
2021/10/27 01:00:49;;;;;;;;;;;23.30;48.50;;;;;;1573900;74;783;-71
2021/10/27 01:02:51;;;;;;;;;;;23.30;48.50;;;;;;1575022;74;774;-70
2021/10/27 01:04:53;;;;;;;;;;;23.30;48.50;;;;;;1571951;73;1934;-70
2021/10/27 01:06:55;;;;;;;;;;;23.30;48.40;;;;;;1575259;74;782;-70
2021/10/27 01:08:57;;;;;;;;;;;23.30;48.50;;;;;;1577832;74;781;-70
2021/10/27 01:10:58;;;;;;;;;;;23.30;48.40;;;;;;1575215;74;670;-69
2021/10/27 01:13:01;;;;;;;;;;;23.30;48.40;;;;;;1580146;74;714;-71
2021/10/27 01:15:03;;;;;;;;;;;23.30;48.40;;;;;;1591790;73;1076;-70
2021/10/27 01:17:05;;;;;;;;;;;23.20;48.20;;;;;;1571675;74;800;-71
2021/10/27 01:19:07;;;;;;;;;;;23.30;48.30;;;;;;1571677;74;788;-71
2021/10/27 01:21:09;;;;;;;;;;;23.30;48.30;;;;;;1573553;74;672;-71
2021/10/27 01:23:11;;;;;;;;;;;23.30;48.30;;;;;;1573679;74;1141;-68
2021/10/27 01:25:13;;;;;;;;;;;23.30;48.20;;;;;;1580262;73;1942;-70
2021/10/27 01:27:15;;;;;;;;;;;23.30;48.20;;;;;;1569779;74;684;-70
2021/10/27 01:29:16;;;;;;;;;;;23.30;48.20;;;;;;1570191;74;798;-68
2021/10/27 01:31:18;;;;;;;;;;;23.30;48.10;;;;;;1573592;74;713;-70
2021/10/27 01:33:20;;;;;;;;;;;23.20;48.10;;;;;;1576500;73;1173;-71
2021/10/27 01:35:22;;;;;;;;;;;23.20;48.10;;;;;;1572104;74;770;-70
2021/10/27 01:37:25;;;;;;;;;;;23.30;48.10;;;;;;1578238;74;707;-69
2021/10/27 01:39:27;;;;;;;;;;;23.30;48.10;;;;;;1573851;74;739;-70
2021/10/27 01:41:29;;;;;;;;;;;23.30;48.20;;;;;;1576432;73;755;-70
2021/10/27 01:43:31;;;;;;;;;;;23.30;48.20;;;;;;1571429;74;1142;-70
2021/10/27 01:45:33;;;;;;;;;;;23.30;48.40;;;;;;1576202;74;1946;-71
2021/10/27 01:47:35;;;;;;;;;;;23.30;48.40;;;;;;1578193;74;744;-71
2021/10/27 01:49:37;;;;;;;;;;;23.30;48.40;;;;;;1578717;73;767;-70
2021/10/27 01:51:39;;;;;;;;;;;23.20;48.30;;;;;;1576900;73;782;-72
2021/10/27 01:53:41;;;;;;;;;;;23.20;48.30;;;;;;1571479;74;1124;-71
2021/10/27 01:55:43;;;;;;;;;;;23.20;48.30;;;;;;1578095;74;895;-71
2021/10/27 01:57:45;;;;;;;;;;;23.20;48.30;;;;;;1578032;74;779;-71
2021/10/27 01:59:47;;;;;;;;;;;23.30;48.40;;;;;;1575153;74;788;-71
2021/10/27 02:01:49;;;;;;;;;;;23.20;48.20;;;;;;1576077;73;739;-69
2021/10/27 02:03:51;;;;;;;;;;;23.30;48.40;;;;;;1581312;74;1153;-71
2021/10/27 02:05:53;;;;;;;;;;;23.30;48.40;;;;;;1573630;74;1927;-70
2021/10/27 02:07:55;;;;;;;;;;;23.30;48.40;;;;;;1583066;73;773;-72
2021/10/27 02:09:57;;;;;;;;;;;23.30;48.40;;;;;;1581987;73;799;-72
2021/10/27 02:11:59;;;;;;;;;;;23.30;48.40;;;;;;1576518;74;799;-72
2021/10/27 02:14:01;;;;;;;;;;;23.30;48.40;;;;;;1578287;73;2075;-68
2021/10/27 02:16:03;;;;;;;;;;;23.20;48.30;;;;;;1525583;77;678;-67
2021/10/27 02:18:05;;;;;;;;;;;23.30;48.40;;;;;;1521114;77;703;-73
2021/10/27 02:20:07;;;;;;;;;;;23.40;48.50;;;;;;1522993;77;724;-69
2021/10/27 02:22:09;;;;;;;;;;;23.30;48.50;;;;;;1524626;77;752;-72
2021/10/27 02:24:11;;;;;;;;;;;23.30;48.50;;;;;;1531932;77;1213;-72
2021/10/27 02:26:14;;;;;;;;;;;23.30;48.60;;;;;;1546434;76;1923;-73
2021/10/27 02:28:16;;;;;;;;;;;23.40;48.60;;;;;;1544895;77;779;-72
2021/10/27 02:30:18;;;;;;;;;;;23.30;48.60;;;;;;1546531;76;799;-73
2021/10/27 02:32:20;;;;;;;;;;;23.30;48.60;;;;;;1546194;77;730;-72
2021/10/27 02:34:22;;;;;;;;;;;23.30;48.60;;;;;;1545924;75;1208;-73
2021/10/27 02:36:24;;;;;;;;;;;23.40;48.60;;;;;;1546339;77;903;-76
2021/10/27 02:38:26;;;;;;;;;;;23.30;48.60;;;;;;1546457;77;623;-73
2021/10/27 02:40:28;;;;;;;;;;;23.40;48.60;;;;;;1546579;76;714;-74
2021/10/27 02:42:30;;;;;;;;;;;23.50;48.60;;;;;;1546138;77;717;-74
2021/10/27 02:44:32;;;;;;;;;;;23.50;48.50;;;;;;1545642;75;1264;-73
2021/10/27 02:46:34;;;;;;;;;;;23.60;48.20;;;;;;1546730;77;1929;-73
2021/10/27 02:48:36;;;;;;;;;;;23.70;48.10;;;;;;1545423;77;519;-75
2021/10/27 02:50:38;;;;;;;;;;;23.70;48.10;;;;;;1546762;77;712;-72
2021/10/27 02:52:40;;;;;;;;;;;23.60;48.00;;;;;;1546086;77;730;-74
2021/10/27 02:54:42;;;;;;;;;;;23.50;48.10;;;;;;1546302;75;1197;-75
2021/10/27 02:56:44;;;;;;;;;;;23.50;48.30;;;;;;1544042;77;896;-75
2021/10/27 02:58:46;;;;;;;;;;;23.50;48.40;;;;;;1546725;77;723;-72
2021/10/27 03:00:48;;;;;;;;;;;23.50;48.50;;;;;;1546094;77;704;-73
2021/10/27 03:02:50;;;;;;;;;;;23.50;48.70;;;;;;1549938;75;768;-73
2021/10/27 03:04:52;;;;;;;;;;;23.50;48.70;;;;;;1544780;76;1156;-72
2021/10/27 03:06:54;;;;;;;;;;;23.40;48.70;;;;;;1541065;77;1929;-73
2021/10/27 03:08:55;;;;;;;;;;;23.40;48.80;;;;;;1546653;75;680;-73
2021/10/27 03:10:57;;;;;;;;;;;23.40;48.90;;;;;;1543530;77;744;-74
2021/10/27 03:12:59;;;;;;;;;;;23.50;48.90;;;;;;1539239;77;651;-73
2021/10/27 03:15:01;;;;;;;;;;;23.40;48.90;;;;;;1537258;77;1143;-74
2021/10/27 03:17:03;;;;;;;;;;;23.40;48.90;;;;;;1539140;76;756;-74
2021/10/27 03:19:05;;;;;;;;;;;23.40;48.90;;;;;;1527580;76;717;-73
2021/10/27 03:21:07;;;;;;;;;;;23.40;49.00;;;;;;1524888;77;745;-73
2021/10/27 03:23:09;;;;;;;;;;;23.40;49.00;;;;;;1525542;77;616;-71
2021/10/27 03:25:10;;;;;;;;;;;23.40;49.10;;;;;;1524101;76;1120;-74
2021/10/27 03:27:12;;;;;;;;;;;23.40;49.10;;;;;;1521574;77;1949;-75
2021/10/27 03:29:14;;;;;;;;;;;23.30;49.10;;;;;;1528747;77;682;-73
2021/10/27 03:31:16;;;;;;;;;;;23.30;49.10;;;;;;1534063;77;740;-74
2021/10/27 03:33:18;;;;;;;;;;;23.30;49.20;;;;;;1525394;77;710;-75
2021/10/27 03:35:20;;;;;;;;;;;23.30;49.20;;;;;;1517670;77;1109;-78
2021/10/27 03:37:22;;;;;;;;;;;23.30;49.20;;;;;;1523989;77;753;-76
2021/10/27 03:39:24;;;;;;;;;;;23.30;49.30;;;;;;1523476;76;694;-76
2021/10/27 03:41:26;;;;;;;;;;;23.30;49.20;;;;;;1524927;77;673;-75
2021/10/27 03:43:28;;;;;;;;;;;23.30;49.20;;;;;;1522314;77;708;-76
2021/10/27 03:45:30;;;;;;;;;;;23.30;49.20;;;;;;1525852;77;1179;-77
2021/10/27 03:47:32;;;;;;;;;;;23.30;49.20;;;;;;1535653;77;1944;-78
2021/10/27 03:49:34;;;;;;;;;;;23.30;49.20;;;;;;1526152;77;730;-76
2021/10/27 03:51:36;;;;;;;;;;;23.30;49.20;;;;;;1522397;77;680;-74
2021/10/27 03:53:38;;;;;;;;;;;23.40;49.20;;;;;;1519074;77;1167;-76
2021/10/27 03:55:40;;;;;;;;;;;23.50;49.10;;;;;;1524900;76;728;-75
2021/10/27 03:57:42;;;;;;;;;;;23.50;48.90;;;;;;1522913;77;962;-71
2021/10/27 03:59:44;;;;;;;;;;;23.60;48.80;;;;;;1524491;77;740;-75
2021/10/27 04:01:45;;;;;;;;;;;23.60;48.60;;;;;;1526829;77;779;-73
2021/10/27 04:03:47;;;;;;;;;;;23.60;48.50;;;;;;1536205;77;1187;-74
2021/10/27 04:05:49;;;;;;;;;;;23.70;48.60;;;;;;1539292;77;1932;-74
2021/10/27 04:07:51;;;;;;;;;;;23.70;48.50;;;;;;1521663;76;772;-74
2021/10/27 04:09:53;;;;;;;;;;;23.70;48.40;;;;;;1533300;77;710;-74
2021/10/27 04:11:55;;;;;;;;;;;23.70;48.40;;;;;;1529658;76;745;-74
2021/10/27 04:13:57;;;;;;;;;;;23.80;48.10;;;;;;1520639;77;1164;-74
2021/10/27 04:15:59;;;;;;;;;;;23.80;48.10;;;;;;1526500;77;708;-73
2021/10/27 04:18:02;;;;;;;;;;;23.90;48.00;;;;;;1535241;76;736;-73
2021/10/27 04:20:05;;;;;;;;;;;23.90;47.80;;;;;;1527587;77;706;-72
2021/10/27 04:22:06;;;;;;;;;;;23.90;47.70;;;;;;1523512;77;622;-73
2021/10/27 04:24:08;;;;;;;;;;;23.90;47.60;;;;;;1533948;77;1181;-73
2021/10/27 04:26:10;;;;;;;;;;;24.00;47.40;;;;;;1515114;76;1933;-73
2021/10/27 04:28:12;;;;;;;;;;;24.10;47.30;;;;;;1526494;77;760;-74
2021/10/27 04:30:14;;;;;;;;;;;24.20;47.10;;;;;;1523796;77;749;-74
2021/10/27 04:32:16;;;;;;;;;;;24.20;46.90;;;;;;1534086;76;719;-73
2021/10/27 04:34:18;;;;;;;;;;;24.20;46.80;;;;;;1525629;76;1158;-72
2021/10/27 04:36:20;;;;;;;;;;;24.30;46.80;;;;;;1515714;76;682;-73
2021/10/27 04:38:22;;;;;;;;;;;24.30;46.80;;;;;;1524130;77;823;-74
2021/10/27 04:40:24;;;;;;;;;;;24.30;46.60;;;;;;1527508;77;713;-72
2021/10/27 04:42:26;;;;;;;;;;;24.30;46.60;;;;;;1522413;77;777;-72
2021/10/27 04:44:28;;;;;;;;;;;24.30;46.60;;;;;;1526335;76;1177;-71
2021/10/27 04:46:30;;;;;;;;;;;24.20;46.60;;;;;;1519086;77;1919;-73
2021/10/27 04:48:31;;;;;;;;;;;24.20;46.70;;;;;;1529002;77;739;-73
2021/10/27 04:50:33;;;;;;;;;;;24.20;46.70;;;;;;1526314;77;724;-74
2021/10/27 04:52:35;;;;;;;;;;;24.20;46.70;;;;;;1528415;77;723;-73
2021/10/27 04:54:37;;;;;;;;;;;24.30;46.80;;;;;;1513732;77;1168;-72
2021/10/27 04:56:39;;;;;;;;;;;24.30;46.80;;;;;;1528880;77;718;-73
2021/10/27 04:58:41;;;;;;;;;;;24.30;46.80;;;;;;1535137;77;825;-71
2021/10/27 05:00:43;;;;;;;;;;;24.30;46.80;;;;;;1522922;77;689;-67
2021/10/27 05:02:45;;;;;;;;;;;24.20;47.00;;;;;;1530638;77;728;-68
2021/10/27 05:04:46;;;;;;;;;;;24.30;47.00;;;;;;1531664;76;1148;-68
2021/10/27 05:06:48;;;;;;;;;;;24.20;46.80;;;;;;1523645;76;1934;-67
2021/10/27 05:08:51;;;;;;;;;;;24.10;46.80;;;;;;1531761;77;673;-68
2021/10/27 05:10:55;;;;;;;;;;;24.10;46.80;;;;;;1527890;76;757;-68
2021/10/27 05:12:57;;;;;;;;;;;24.00;46.60;;;;;;1518802;77;674;-67
2021/10/27 05:14:59;;;;;;;;;;;24.00;46.60;;;;;;1519585;77;1168;-67
2021/10/27 05:17:01;;;;;;;;;;;24.00;46.60;;;;;;1534061;76;788;-68
2021/10/27 05:19:03;;;;;;;;;;;23.90;46.70;;;;;;1529246;76;715;-67
2021/10/27 05:21:05;;;;;;;;;;;23.90;46.90;;;;;;1525859;77;778;-65
2021/10/27 05:23:06;;;;;;;;;;;23.90;47.00;;;;;;1517639;76;712;-66
2021/10/27 05:25:09;;;;;;;;;;;23.90;47.10;;;;;;1531858;76;1164;-68
2021/10/27 05:27:10;;;;;;;;;;;24.00;46.90;;;;;;1525719;76;1917;-68
2021/10/27 05:29:12;;;;;;;;;;;24.00;46.80;;;;;;1516986;77;684;-67
2021/10/27 05:31:14;;;;;;;;;;;24.00;46.80;;;;;;1525607;76;809;-68
2021/10/27 05:33:16;;;;;;;;;;;23.90;46.80;;;;;;1529777;77;801;-66
2021/10/27 05:35:18;;;;;;;;;;;23.90;46.80;;;;;;1526173;77;1062;-67
2021/10/27 05:37:20;;;;;;;;;;;23.90;46.80;;;;;;1527524;77;699;-67
2021/10/27 05:39:22;;;;;;;;;;;23.90;46.90;;;;;;1519339;77;770;-66
2021/10/27 05:41:23;;;;;;;;;;;23.80;46.80;;;;;;1523861;76;709;-66
2021/10/27 05:43:26;;;;;;;;;;;23.80;46.80;;;;;;1523689;77;700;-66
2021/10/27 05:45:28;;;;;;;;;;;23.80;46.80;;;;;;1528070;77;1208;-66
2021/10/27 05:47:30;;;;;;;;;;;23.70;46.80;;;;;;1516759;77;1906;-66
2021/10/27 05:51:45;;;;;;;;;;;23.70;46.80;;;;;;1523103;77;1142;-65
2021/10/27 05:56:05;;;;;;;;;;;23.60;46.70;;;;;;1525003;77;708;-66
2021/10/27 05:58:08;;;;;;;;;;;23.60;46.70;;;;;;1525424;76;820;-66
2021/10/27 06:00:11;;;;;;;;;;;23.60;46.70;;;;;;1526432;76;713;-66
2021/10/27 06:02:12;;;;;;;;;;;23.60;46.70;;;;;;1515255;77;802;-66
2021/10/27 06:04:18;;;;;;;;;;;23.60;46.70;;;;;;1526141;77;1156;-67
2021/10/27 06:06:20;;;;;;;;;;;23.60;46.70;;;;;;1526717;76;741;-68
2021/10/27 06:08:23;;;;;;;;;;;23.60;46.60;;;;;;1528562;76;1952;-68
2021/10/27 06:10:25;;;;;;;;;;;23.50;46.60;;;;;;1526153;77;763;-67
2021/10/27 06:12:28;;;;;;;;;;;23.50;46.70;;;;;;1527887;76;781;-66
2021/10/27 06:14:31;;;;;;;;;;;23.50;46.60;;;;;;1534450;76;1173;-67
2021/10/27 06:16:33;;;;;;;;;;;23.50;46.60;;;;;;1536962;76;718;-64
2021/10/27 06:18:34;;;;;;;;;;;23.50;46.50;;;;;;1534728;76;739;-66
2021/10/27 06:20:36;;;;;;;;;;;23.50;46.50;;;;;;1534565;76;763;-68
2021/10/27 06:22:38;;;;;;;;;;;23.50;46.40;;;;;;1534680;76;745;-66
2021/10/27 06:24:40;;;;;;;;;;;23.50;46.30;;;;;;1525189;76;1159;-66
2021/10/27 06:26:43;;;;;;;;;;;23.40;46.20;;;;;;1521906;76;1933;-67
2021/10/27 06:28:57;;;;;;;;;;;23.40;46.00;;;;;;1515073;77;683;-67
2021/10/27 06:30:54;;;;;;;;;;;23.50;45.40;;;;;;1527445;76;1626;-68
2021/10/27 06:33:00;;;;;;;;;;;23.40;44.30;;;;;;1528886;76;1592;-68
2021/10/27 06:35:11;;;;;;;;;;;23.30;43.70;;;;;;1531956;76;1565;-66
2021/10/27 06:37:45;;;;;;;;;;;23.30;43.10;;;;;;1525928;76;1553;-64
2021/10/27 06:45:53;;;;;;;;;;;23.30;42.70;;;;;;1526533;77;1232;-67
2021/10/27 06:48:15;;;;;;;;;;;23.10;41.60;;;;;;1527554;76;1913;-66
2021/10/27 06:50:17;;;;;;;;;;;23.20;41.40;;;;;;1530083;76;740;-68
2021/10/27 06:52:19;;;;;;;;;;;23.10;41.10;;;;;;1525398;76;812;-67
2021/10/27 06:54:21;;;;;;;;;;;23.10;41.00;;;;;;1516012;77;1157;-67
2021/10/27 06:56:23;;;;;;;;;;;23.10;40.70;;;;;;1527323;76;662;-67
2021/10/27 06:58:26;;;;;;;;;;;23.00;40.50;;;;;;1533353;76;709;-67
2021/10/27 07:05:11;;;;;;;;;;;23.00;40.00;;;;;;1535286;76;1201;-67
2021/10/27 07:16:24;;;;;;;;;;;22.90;39.90;;;;;;1515633;76;747;-67
2021/10/27 07:18:25;;;;;;;;;;;22.90;39.90;;;;;;1522021;77;772;-67
2021/10/27 07:20:28;;;;;;;;;;;22.90;39.90;;;;;;1536318;77;666;-66
2021/10/27 07:22:30;;;;;;;;;;;22.90;40.00;;;;;;1520206;76;683;-67
2021/10/27 07:24:33;;;;;;;;;;;22.90;40.00;;;;;;1522404;76;1204;-67
2021/10/27 07:26:37;;;;;;;;;;;22.80;39.90;;;;;;1523596;77;1055;-67
2021/10/27 07:28:41;;;;;;;;;;;22.90;40.00;;;;;;1524871;76;1927;-69
2021/10/27 07:30:43;;;;;;;;;;;22.80;39.70;;;;;;1526080;76;1712;-69
2021/10/27 07:32:44;;;;;;;;;;;22.80;39.70;;;;;;1524669;76;795;-68
2021/10/27 07:34:57;;;;;;;;;;;22.80;39.50;;;;;;1520375;76;1181;-69
2021/10/27 07:41:32;;;;;;;;;;;22.70;39.90;;;;;;1517385;76;1631;-72
2021/10/27 07:43:34;;;;;;;;;;;22.80;39.80;;;;;;1525035;77;1184;-70
2021/10/27 07:45:36;;;;;;;;;;;22.80;40.00;;;;;;1520152;76;711;-71
2021/10/27 07:47:38;;;;;;;;;;;22.80;40.10;;;;;;1524944;76;1941;-70
2021/10/27 07:49:40;;;;;;;;;;;22.80;40.20;;;;;;1522777;76;701;-70
2021/10/27 07:51:42;;;;;;;;;;;22.80;40.10;;;;;;1513935;76;769;-68
2021/10/27 07:53:44;;;;;;;;;;;22.80;40.00;;;;;;1532118;76;1102;-70
2021/10/27 07:55:46;;;;;;;;;;;22.90;40.00;;;;;;1534799;76;716;-70
2021/10/27 07:57:49;;;;;;;;;;;22.80;39.70;;;;;;1534906;76;691;-69
2021/10/27 07:59:51;;;;;;;;;;;22.90;39.90;;;;;;1535193;77;733;-67
2021/10/27 08:01:54;;;;;;;;;;;22.90;40.10;;;;;;1535330;77;782;-70
2021/10/27 08:03:57;;;;;;;;;;;22.90;39.90;;;;;;1536704;76;1141;-72
2021/10/27 08:06:05;;;;;;;;;;;22.80;39.90;;;;;;1536632;77;765;-71
2021/10/27 08:08:02;;;;;;;;;;;22.90;40.20;;;;;;1533816;76;1922;-70
2021/10/27 08:10:04;;;;;;;;;;;22.80;40.20;;;;;;1532768;77;756;-70
2021/10/27 08:12:06;;;;;;;;;;;22.90;40.40;;;;;;1535213;77;745;-70
2021/10/27 08:14:11;;;;;;;;;;;22.90;40.50;;;;;;1540388;73;2113;-71
2021/10/27 08:16:13;;;;;;;;;;;22.90;40.50;;;;;;1570129;74;697;-71
2021/10/27 08:18:15;;;;;;;;;;;23.00;40.30;;;;;;1574483;74;769;-72
2021/10/27 08:20:18;;;;;;;;;;;23.00;40.20;;;;;;1548816;76;790;-71
2021/10/27 08:22:20;;;;;;;;;;;23.00;39.80;;;;;;1533782;77;771;-72
2021/10/27 08:24:24;;;;;;;;;;;23.00;39.20;;;;;;1540847;76;1198;-71
2021/10/27 08:26:26;;;;;;;;;;;23.00;38.60;;;;;;1532536;76;1653;-72
2021/10/27 08:28:35;;;;;;;;;;;23.00;38.40;;;;;;1535510;76;1916;-71
2021/10/27 08:30:39;;;;;;;;;;;23.00;38.60;;;;;;1534577;76;1624;-71
2021/10/27 08:34:48;;;;;;;;;;;23.00;38.20;;;;;;1532613;76;1184;-72
2021/10/27 08:36:50;;;;;;;;;;;23.00;38.10;;;;;;1506994;77;959;-71
2021/10/27 08:38:53;;;;;;;;;;;23.00;38.10;;;;;;1512569;77;675;-71
2021/10/27 08:40:55;;;;;;;;;;;23.00;38.00;;;;;;1509318;77;720;-71
2021/10/27 08:42:57;;;;;;;;;;;23.00;38.10;;;;;;1509059;77;750;-71
2021/10/27 08:44:59;;;;;;;;;;;23.10;38.00;;;;;;1504355;77;1169;-68
2021/10/27 08:47:02;;;;;;;;;;;23.10;38.20;;;;;;1530631;76;778;-71
2021/10/27 08:49:06;;;;;;;;;;;23.00;38.10;;;;;;1517173;77;1910;-71
2021/10/27 08:51:08;;;;;;;;;;;23.10;38.40;;;;;;1513374;77;1950;-71
2021/10/27 08:53:14;;;;;;;;;;;23.10;38.60;;;;;;1524017;77;722;-71
2021/10/27 08:55:15;;;;;;;;;;;23.10;38.60;;;;;;1532490;76;1725;-70
2021/10/27 08:57:18;;;;;;;;;;;23.10;38.60;;;;;;1552320;76;788;-70
2021/10/27 08:59:32;;;;;;;;;;;23.10;38.50;;;;;;1512344;77;743;-70
2021/10/27 09:01:46;;;;;;;;;;;23.10;38.40;;;;;;1521078;77;1628;-71
2021/10/27 09:06:58;;;;;;;;;;;23.10;38.40;;;;;;1536797;76;866;-69
2021/10/27 09:34:03;;;;;;;;;;;23.30;38.20;;;;;;1508294;77;1616;-69
2021/10/27 09:38:40;;;;;;;;;;;23.30;38.30;;;;;;1538776;76;858;-69
2021/10/27 09:40:53;;;;;;;;;;;23.30;38.10;;;;;;1505401;76;1669;-68
2021/10/27 09:46:01;;;;;;;;;;;23.30;38.10;;;;;;1522367;77;1082;-69
2021/10/27 09:56:39;;;;;;;;;;;23.30;37.80;;;;;;1543936;76;838;-69
2021/10/27 10:05:30;;;;;;;;;;;23.30;37.60;;;;;;1545631;76;1176;-69
2021/10/27 10:07:34;;;;;;;;;;;23.30;37.60;;;;;;1503370;79;773;-70
2021/10/27 10:09:39;;;;;;;;;;;23.40;37.70;;;;;;1505691;79;1915;-74
2021/10/27 10:11:40;;;;;;;;;;;23.40;37.60;;;;;;1508545;79;1663;-73
2021/10/27 10:13:42;;;;;;;;;;;23.30;37.50;;;;;;1515877;77;715;-73
2021/10/27 10:15:44;;;;;;;;;;;23.30;37.00;;;;;;1519398;77;1116;-73
2021/10/27 10:17:46;;;;;;;;;;;23.40;37.10;;;;;;1546135;76;732;-73
2021/10/27 10:19:48;;;;;;;;;;;23.40;37.10;;;;;;1550468;76;757;-73
2021/10/27 10:21:51;;;;;;;;;;;23.40;37.40;;;;;;1515894;77;770;-73
2021/10/27 10:24:11;;;;;;;;;;;23.40;37.60;;;;;;1521566;77;744;-73
2021/10/27 10:26:13;;;;;;;;;;;23.40;37.10;;;;;;1515930;77;929;-72
2021/10/27 10:28:16;;;;;;;;;;;23.40;37.60;;;;;;1510505;77;1947;-70
2021/10/27 10:30:38;;;;;;;;;;;23.40;37.80;;;;;;1584870;74;717;-70
2021/10/27 10:32:39;;;;;;;;;;;23.50;37.10;;;;;;1549971;75;1628;-70
2021/10/27 10:34:50;;;;;;;;;;;23.40;36.40;;;;;;1580975;74;1124;-70
2021/10/27 10:36:47;;;;;;;;;;;23.40;37.40;;;;;;1575015;74;1685;-71
2021/10/27 10:45:32;;;;;;;;;;;23.30;37.40;;;;;;1540791;76;1087;-71
2021/10/27 10:57:15;;;;;;;;;;;23.20;37.40;;;;;;1482159;79;1633;-71
2021/10/27 11:11:37;;;;;;;;;;;23.20;37.40;;;;;;1518348;77;824;-71
2021/10/27 11:26:59;;;;;;;;;;;22.90;37.30;;;;;;1555526;75;849;-71
2021/10/27 11:38:18;;;;;;;;;;;22.50;38.00;;;;;;1525145;77;1628;-72
2021/10/27 11:40:40;;;;;;;;;;;22.50;38.10;;;;;;1530176;77;1639;-72
2021/10/27 11:42:44;;;;;;;;;;;22.50;37.80;;;;;;1524624;77;1548;-72
2021/10/27 11:44:47;;;;;;;;;;;22.50;38.00;;;;;;1539571;76;1524;-72
2021/10/27 11:47:00;;;;;;;;;;;22.50;37.60;;;;;;1516967;77;1680;-72
2021/10/27 11:48:58;;;;;;;;;;;22.50;38.10;;;;;;1539340;76;1930;-71
2021/10/27 11:50:58;;;;;;;;;;;22.50;38.50;;;;;;1518697;77;1731;-72
2021/10/27 11:53:05;;;;;;;;;;;22.50;38.50;;;;;;1517933;77;841;-72
2021/10/27 11:55:05;;;;;;;;;;;22.60;38.40;;;;;;1507983;77;1635;-71
2021/10/27 11:57:08;;;;;;;;;;;22.60;38.40;;;;;;1515653;77;730;-72
2021/10/27 11:59:10;;;;;;;;;;;22.50;38.10;;;;;;1543135;76;1880;-72
2021/10/27 12:01:14;;;;;;;;;;;22.40;37.70;;;;;;1545649;76;736;-68
2021/10/27 12:03:22;;;;;;;;;;;22.20;37.10;;;;;;1542792;76;1751;-66
2021/10/27 12:05:23;;;;;;;;;;;22.10;37.50;;;;;;1508635;79;1551;-66
2021/10/27 12:07:42;;;;;;;;;;;22.00;38.10;;;;;;1532964;76;786;-69
2021/10/27 12:16:34;;;;;;;;;;;21.70;38.00;;;;;;1549277;75;892;-67
2021/10/27 12:18:31;;;;;;;;;;;21.60;38.80;;;;;;1565471;75;1902;-68
2021/10/27 12:20:38;;;;;;;;;;;21.50;38.60;;;;;;1548994;75;718;-70
2021/10/27 12:22:40;;;;;;;;;;;21.40;38.30;;;;;;1557306;75;2172;-70
2021/10/27 12:24:42;;;;;;;;;;;21.30;38.60;;;;;;1535371;76;1194;-70
2021/10/27 12:26:44;;;;;;;;;;;21.30;38.90;;;;;;1509321;77;826;-69
2021/10/27 12:28:51;;;;;;;;;;;21.30;39.50;;;;;;1508994;79;1917;-71
2021/10/27 12:30:50;;;;;;;;;;;21.30;39.50;;;;;;1508430;79;1073;-70
2021/10/27 12:32:52;;;;;;;;;;;21.30;39.90;;;;;;1504513;79;740;-70
2021/10/27 12:34:56;;;;;;;;;;;21.40;39.90;;;;;;1532625;76;1162;-69
2021/10/27 12:36:59;;;;;;;;;;;21.40;39.80;;;;;;1557715;75;1076;-73
2021/10/27 12:39:17;;;;;;;;;;;21.40;39.80;;;;;;1568837;75;759;-70
2021/10/27 12:41:21;;;;;;;;;;;21.60;39.80;;;;;;1568168;75;1531;-70
2021/10/27 12:43:22;;;;;;;;;;;21.50;39.20;;;;;;1573085;75;1384;-71
2021/10/27 12:45:34;;;;;;;;;;;21.50;38.90;;;;;;1564069;75;1121;-70
2021/10/27 12:47:40;;;;;;;;;;;21.30;38.80;;;;;;1568528;75;720;-70
2021/10/27 12:49:40;;;;;;;;;;;21.40;39.60;;;;;;1559606;75;1919;-69
2021/10/27 12:51:42;;;;;;;;;;;21.30;39.70;;;;;;1555311;75;782;-70
2021/10/27 12:53:45;;;;;;;;;;;21.30;39.60;;;;;;1543071;76;671;-70
2021/10/27 12:55:47;;;;;;;;;;;21.40;39.80;;;;;;1509280;79;1067;-70
2021/10/27 12:58:06;;;;;;;;;;;21.50;40.20;;;;;;1530954;77;791;-70
2021/10/27 13:00:16;;;;;;;;;;;21.50;40.20;;;;;;1555804;75;727;-71
2021/10/27 13:02:25;;;;;;;;;;;21.50;40.00;;;;;;1569826;75;725;-69
2021/10/27 13:11:00;;;;;;;;;;;21.10;40.00;;;;;;1537687;76;1916;-69
2021/10/27 13:13:03;;;;;;;;;;;21.20;40.30;;;;;;1556736;75;1710;-70
2021/10/27 13:18:10;;;;;;;;;;;21.00;40.50;;;;;;1547753;75;845;-68
2021/10/27 13:19:19;;;;;;;;;;;20.90;40.30;;;;;;1550636;75;1074;-70
2021/10/27 13:30:19;;;;;;;;;;;20.90;41.00;;;;;;1509191;77;1911;-69
2021/10/27 13:32:22;;;;;;;;;;;20.90;39.80;;;;;;1532984;77;1670;-69
2021/10/27 13:34:26;;;;;;;;;;;20.80;40.60;;;;;;1537754;76;1525;-76
2021/10/27 13:36:28;;;;;;;;;;;20.90;41.00;;;;;;1536435;76;741;-66
2021/10/27 13:38:37;;;;;;;;;;;21.10;40.80;;;;;;1529013;76;791;-63
2021/10/27 13:40:42;;;;;;;;;;;21.20;40.70;;;;;;1533847;77;675;-65
2021/10/27 13:45:37;;;;;;;;;;;21.50;40.60;;;;;;1519128;77;1120;-65
2021/10/27 13:47:38;;;;;;;;;;;21.50;40.60;;;;;;1510692;76;1410;-64
2021/10/27 13:59:10;;;;;;;;;;;21.80;40.20;;;;;;1535462;76;1627;-64
2021/10/27 14:13:45;;;;;;;;;;;22.00;39.80;;;;;;1543421;76;861;-62
2021/10/27 14:22:54;;;;;;;;;;;22.10;40.20;;;;;;1571036;75;1647;-72
2021/10/27 15:15:33;;;;;;;;;;;22.30;40.10;;;;;;1583145;74;764;-73
2021/10/27 15:20:06;;;;;;;;;;;22.40;40.20;;;;;;1592177;74;815;-73
2021/10/27 15:22:08;;;;;;;;;;;22.30;40.20;;;;;;1580679;74;1562;-72
2021/10/27 15:28:44;;;;;;;;;;;22.30;40.20;;;;;;1593295;74;858;-73
2021/10/27 15:30:48;;;;;;;;;;;22.30;40.20;;;;;;1594092;74;1917;-72
2021/10/27 15:34:58;;;;;;;;;;;22.40;40.20;;;;;;1585874;73;1089;-72
2021/10/27 15:41:43;;;;;;;;;;;22.30;40.30;;;;;;1591508;73;750;-74
2021/10/27 15:43:44;;;;;;;;;;;22.40;40.40;;;;;;1578780;73;1181;-71
2021/10/27 15:50:32;;;;;;;;;;;22.40;40.30;;;;;;1581243;74;1160;-72
2021/10/27 15:52:27;;;;;;;;;;;22.40;40.40;;;;;;1575411;74;1524;-72
2021/10/27 15:54:29;;;;;;;;;;;22.40;40.40;;;;;;1585003;73;1166;-74
2021/10/27 15:56:31;;;;;;;;;;;22.40;40.30;;;;;;1592315;74;723;-72
2021/10/27 15:58:32;;;;;;;;;;;22.40;40.40;;;;;;1584434;73;677;-73
2021/10/27 16:00:38;;;;;;;;;;;22.30;40.40;;;;;;1586683;74;728;-73
2021/10/27 16:02:38;;;;;;;;;;;22.40;40.40;;;;;;1574288;74;992;-73
2021/10/27 16:04:40;;;;;;;;;;;22.40;40.40;;;;;;1591500;74;1157;-72
2021/10/27 16:06:50;;;;;;;;;;;22.40;40.40;;;;;;1584752;74;746;-71
2021/10/27 16:08:47;;;;;;;;;;;22.40;40.40;;;;;;1585064;74;1066;-73
2021/10/27 16:10:54;;;;;;;;;;;22.40;40.30;;;;;;1586402;74;1895;-72
2021/10/27 16:12:53;;;;;;;;;;;22.40;40.40;;;;;;1586674;74;1545;-70
2021/10/27 16:14:55;;;;;;;;;;;22.40;40.30;;;;;;1585743;74;1125;-72
2021/10/27 16:16:57;;;;;;;;;;;22.40;40.40;;;;;;1587896;74;803;-71
2021/10/27 16:19:00;;;;;;;;;;;22.40;40.40;;;;;;1578387;74;741;-74
2021/10/27 16:21:02;;;;;;;;;;;22.40;40.40;;;;;;1583054;73;655;-71
2021/10/27 16:23:05;;;;;;;;;;;22.40;40.40;;;;;;1589285;74;727;-71
2021/10/27 16:25:08;;;;;;;;;;;22.40;40.40;;;;;;1582371;73;1093;-73
2021/10/27 16:27:11;;;;;;;;;;;22.40;40.40;;;;;;1588798;74;702;-70
2021/10/27 16:29:13;;;;;;;;;;;22.40;40.50;;;;;;1583901;73;722;-71
2021/10/27 16:31:15;;;;;;;;;;;22.40;40.40;;;;;;1590080;74;1931;-74